ARC Gloria — 5KMT — position and weather

sailwx.info

Track history (hours):
 
Tides and Currents Weather Stations Pressure Air Temp Water Temp Dewpoint Dewpoint Depression Visibility Wind Speed Wind Dir Waves Ship Positions

ARC Gloria (Colombia)

Three-masted barque. Training ship of the Colombian National Armada.

Ship's website: http://www.armada.mil.co/

Last reported at 2019-Jun-01 16:28 UTC. Time now 2019-Jun-16 01:10 UTC.
Position N 10°24' W 075°37'.
Warning: this ship's position is 14 days out of date.

Length 76 m; draft 4.6 m.

Type: Sailing vessel. MMSI: 730010001.

Date/timePositionNaut miles runAvg speedWind from/ knotsBaromVisibWave heightAir tempDewpointWater temp
2019-Jun-01 16:28N 10°24' W 075°37'5 4.3
2019-Jun-01 15:20N 10°29' W 075°36'3 4.4
2019-Jun-01 14:42N 10°31' W 075°35'1 3.1
2019-Jun-01 14:23N 10°32' W 075°35'2 3.6
2019-Jun-01 13:50N 10°33' W 075°37'2 3.4
2019-Jun-01 13:20N 10°34' W 075°38'1 3.4
2019-Jun-01 12:57N 10°35' W 075°39'13 2.7
2019-Jun-01 08:15N 10°39' W 075°52'  
2019-May-24 19:54N 10°24' W 075°33'1 1.8
2019-May-24 19:30N 10°24' W 075°33'4 6.9
2019-May-24 19:00N 10°20' W 075°32'510.0
2019-May-24 18:30N 10°19' W 075°37'610.6
2019-May-24 17:57N 10°19' W 075°43'1 0.8
2019-May-24 16:22N 10°20' W 075°43'410.0
2019-May-24 15:58N 10°19' W 075°39'511.4
2019-May-24 15:30N 10°19' W 075°33'3 6.5
2019-May-24 15:00N 10°22' W 075°32'1 1.1
2019-May-24 14:30N 10°23' W 075°33'0 0.3
2019-May-24 13:59N 10°23' W 075°33'1 2.0
2019-May-24 13:29N 10°24' W 075°33'1 2.0
2019-May-24 12:58N 10°24' W 075°33'0 0.0
2019-May-24 12:29N 10°24' W 075°33'0 0.0
2019-May-23 17:29N 10°24' W 075°33'  
Track history (hours):
 
Tides and Currents Weather Stations Pressure Air Temp Water Temp Dewpoint Dewpoint Depression Visibility Wind Speed Wind Dir Waves Ship Positions

ARC Gloria (Colombia)

Three-masted barque. Training ship of the Colombian National Armada.

Ship's website: http://www.armada.mil.co/

Last reported at 2019-Jun-01 16:28 UTC. Time now 2019-Jun-16 01:10 UTC.
Position N 10°24' W 075°37'.
Warning: this ship's position is 14 days out of date.

Length 76 m; draft 4.6 m.

Type: Sailing vessel. MMSI: 730010001.

Date/timePositionNaut miles runAvg speedWind from/ knotsBaromVisibWave heightAir tempDewpointWater temp
2019-Jun-01 16:28N 10°24' W 075°37'5 4.3
2019-Jun-01 15:20N 10°29' W 075°36'3 4.4
2019-Jun-01 14:42N 10°31' W 075°35'1 3.1
2019-Jun-01 14:23N 10°32' W 075°35'2 3.6
2019-Jun-01 13:50N 10°33' W 075°37'2 3.4
2019-Jun-01 13:20N 10°34' W 075°38'1 3.4
2019-Jun-01 12:57N 10°35' W 075°39'13 2.7
2019-Jun-01 08:15N 10°39' W 075°52'  
2019-May-24 19:54N 10°24' W 075°33'1 1.8
2019-May-24 19:30N 10°24' W 075°33'4 6.9
2019-May-24 19:00N 10°20' W 075°32'510.0
2019-May-24 18:30N 10°19' W 075°37'610.6
2019-May-24 17:57N 10°19' W 075°43'1 0.8
2019-May-24 16:22N 10°20' W 075°43'410.0
2019-May-24 15:58N 10°19' W 075°39'511.4
2019-May-24 15:30N 10°19' W 075°33'3 6.5
2019-May-24 15:00N 10°22' W 075°32'1 1.1
2019-May-24 14:30N 10°23' W 075°33'0 0.3
2019-May-24 13:59N 10°23' W 075°33'1 2.0
2019-May-24 13:29N 10°24' W 075°33'1 2.0
2019-May-24 12:58N 10°24' W 075°33'0 0.0
2019-May-24 12:29N 10°24' W 075°33'0 0.0
2019-May-23 17:29N 10°24' W 075°33'  

Dump ship's entire track history